sensor_id;sensor_type;location;lat;lon;timestamp;P1;durP1;ratioP1;P2;durP2;ratioP2
13388;SDS011;6764;53.250;10.410;2024-02-21T00:00:57;28.85;;;14.85;;
13388;SDS011;6764;53.250;10.410;2024-02-21T00:03:22;25.70;;;15.30;;
13388;SDS011;6764;53.250;10.410;2024-02-21T00:05:48;29.50;;;15.60;;
13388;SDS011;6764;53.250;10.410;2024-02-21T00:08:13;31.70;;;15.88;;
13388;SDS011;6764;53.250;10.410;2024-02-21T00:10:39;27.43;;;15.60;;
13388;SDS011;6764;53.250;10.410;2024-02-21T00:13:05;29.37;;;15.27;;
13388;SDS011;6764;53.250;10.410;2024-02-21T00:15:30;26.15;;;14.70;;
13388;SDS011;6764;53.250;10.410;2024-02-21T00:17:56;31.15;;;15.50;;
13388;SDS011;6764;53.250;10.410;2024-02-21T00:20:21;29.17;;;14.73;;
13388;SDS011;6764;53.250;10.410;2024-02-21T00:22:47;27.65;;;15.43;;
13388;SDS011;6764;53.250;10.410;2024-02-21T00:25:13;24.30;;;14.55;;
13388;SDS011;6764;53.250;10.410;2024-02-21T00:27:38;27.10;;;14.33;;
13388;SDS011;6764;53.250;10.410;2024-02-21T00:30:04;27.58;;;14.85;;
13388;SDS011;6764;53.250;10.410;2024-02-21T00:32:31;26.38;;;15.15;;
13388;SDS011;6764;53.250;10.410;2024-02-21T00:34:59;24.98;;;15.00;;
13388;SDS011;6764;53.250;10.410;2024-02-21T00:37:24;26.17;;;14.33;;
13388;SDS011;6764;53.250;10.410;2024-02-21T00:39:50;25.85;;;15.32;;
13388;SDS011;6764;53.250;10.410;2024-02-21T00:42:15;26.87;;;14.83;;
13388;SDS011;6764;53.250;10.410;2024-02-21T00:44:41;23.70;;;14.87;;
13388;SDS011;6764;53.250;10.410;2024-02-21T00:47:06;24.73;;;14.57;;
13388;SDS011;6764;53.250;10.410;2024-02-21T00:49:32;24.93;;;14.10;;
13388;SDS011;6764;53.250;10.410;2024-02-21T00:51:58;25.93;;;14.67;;
13388;SDS011;6764;53.250;10.410;2024-02-21T00:54:23;27.08;;;15.27;;
13388;SDS011;6764;53.250;10.410;2024-02-21T00:56:49;26.83;;;16.07;;
13388;SDS011;6764;53.250;10.410;2024-02-21T00:59:14;26.88;;;15.60;;
13388;SDS011;6764;53.250;10.410;2024-02-21T01:01:40;25.03;;;15.60;;
13388;SDS011;6764;53.250;10.410;2024-02-21T01:04:11;27.25;;;15.23;;
13388;SDS011;6764;53.250;10.410;2024-02-21T01:06:36;25.17;;;14.77;;
13388;SDS011;6764;53.250;10.410;2024-02-21T01:09:02;26.20;;;15.45;;
13388;SDS011;6764;53.250;10.410;2024-02-21T01:11:28;24.95;;;14.63;;
13388;SDS011;6764;53.250;10.410;2024-02-21T01:13:55;26.03;;;15.57;;
13388;SDS011;6764;53.250;10.410;2024-02-21T01:16:20;24.67;;;14.90;;
13388;SDS011;6764;53.250;10.410;2024-02-21T01:18:46;25.05;;;15.23;;
13388;SDS011;6764;53.250;10.410;2024-02-21T01:21:11;23.42;;;15.35;;
13388;SDS011;6764;53.250;10.410;2024-02-21T01:23:37;29.37;;;16.60;;
13388;SDS011;6764;53.250;10.410;2024-02-21T01:26:03;26.42;;;15.90;;
13388;SDS011;6764;53.250;10.410;2024-02-21T01:28:29;25.05;;;16.15;;
13388;SDS011;6764;53.250;10.410;2024-02-21T01:30:55;26.65;;;16.98;;
13388;SDS011;6764;53.250;10.410;2024-02-21T01:33:21;26.13;;;17.20;;
13388;SDS011;6764;53.250;10.410;2024-02-21T01:35:47;26.87;;;17.33;;
13388;SDS011;6764;53.250;10.410;2024-02-21T01:38:12;25.70;;;16.25;;
13388;SDS011;6764;53.250;10.410;2024-02-21T01:40:38;27.73;;;16.23;;
13388;SDS011;6764;53.250;10.410;2024-02-21T01:43:14;26.20;;;16.93;;
13388;SDS011;6764;53.250;10.410;2024-02-21T01:45:51;24.83;;;16.33;;
13388;SDS011;6764;53.250;10.410;2024-02-21T01:48:19;24.77;;;16.83;;
13388;SDS011;6764;53.250;10.410;2024-02-21T01:50:46;26.23;;;16.80;;
13388;SDS011;6764;53.250;10.410;2024-02-21T01:53:17;26.67;;;17.25;;
13388;SDS011;6764;53.250;10.410;2024-02-21T01:55:47;26.67;;;17.73;;
13388;SDS011;6764;53.250;10.410;2024-02-21T01:58:13;33.72;;;19.13;;
13388;SDS011;6764;53.250;10.410;2024-02-21T02:00:43;28.70;;;18.47;;
13388;SDS011;6764;53.250;10.410;2024-02-21T02:03:10;29.20;;;18.42;;
13388;SDS011;6764;53.250;10.410;2024-02-21T02:05:45;27.33;;;18.27;;
13388;SDS011;6764;53.250;10.410;2024-02-21T02:08:12;28.23;;;18.55;;
13388;SDS011;6764;53.250;10.410;2024-02-21T02:10:43;27.63;;;18.77;;
13388;SDS011;6764;53.250;10.410;2024-02-21T02:13:09;28.00;;;18.65;;
13388;SDS011;6764;53.250;10.410;2024-02-21T02:18:10;32.00;;;19.55;;
13388;SDS011;6764;53.250;10.410;2024-02-21T02:20:37;28.00;;;18.80;;
13388;SDS011;6764;53.250;10.410;2024-02-21T02:25:47;32.17;;;19.67;;
13388;SDS011;6764;53.250;10.410;2024-02-21T02:28:14;27.75;;;19.27;;
13388;SDS011;6764;53.250;10.410;2024-02-21T02:30:40;30.70;;;20.40;;
13388;SDS011;6764;53.250;10.410;2024-02-21T02:33:06;29.23;;;19.67;;
13388;SDS011;6764;53.250;10.410;2024-02-21T02:35:31;29.75;;;19.40;;
13388;SDS011;6764;53.250;10.410;2024-02-21T02:37:58;27.80;;;18.92;;
13388;SDS011;6764;53.250;10.410;2024-02-21T02:40:24;29.65;;;19.58;;
13388;SDS011;6764;53.250;10.410;2024-02-21T02:42:49;26.58;;;19.23;;
13388;SDS011;6764;53.250;10.410;2024-02-21T02:45:16;27.95;;;19.55;;
13388;SDS011;6764;53.250;10.410;2024-02-21T02:47:44;26.80;;;18.85;;
13388;SDS011;6764;53.250;10.410;2024-02-21T02:50:13;28.58;;;19.13;;
13388;SDS011;6764;53.250;10.410;2024-02-21T02:52:39;27.57;;;19.17;;
13388;SDS011;6764;53.250;10.410;2024-02-21T02:55:05;27.93;;;19.60;;
13388;SDS011;6764;53.250;10.410;2024-02-21T02:57:31;32.28;;;19.65;;
13388;SDS011;6764;53.250;10.410;2024-02-21T02:59:58;28.92;;;18.58;;
13388;SDS011;6764;53.250;10.410;2024-02-21T03:02:23;25.17;;;18.77;;
13388;SDS011;6764;53.250;10.410;2024-02-21T03:04:49;32.90;;;20.50;;
13388;SDS011;6764;53.250;10.410;2024-02-21T03:07:15;30.20;;;19.67;;
13388;SDS011;6764;53.250;10.410;2024-02-21T03:09:41;28.70;;;19.35;;
13388;SDS011;6764;53.250;10.410;2024-02-21T03:12:10;30.23;;;20.27;;
13388;SDS011;6764;53.250;10.410;2024-02-21T03:14:36;28.52;;;21.15;;
13388;SDS011;6764;53.250;10.410;2024-02-21T03:17:02;31.00;;;20.63;;
13388;SDS011;6764;53.250;10.410;2024-02-21T03:19:28;30.90;;;20.40;;
13388;SDS011;6764;53.250;10.410;2024-02-21T03:21:54;32.08;;;20.83;;
13388;SDS011;6764;53.250;10.410;2024-02-21T03:24:20;32.58;;;21.23;;
13388;SDS011;6764;53.250;10.410;2024-02-21T03:26:46;33.17;;;21.52;;
13388;SDS011;6764;53.250;10.410;2024-02-21T03:29:13;31.93;;;20.73;;
13388;SDS011;6764;53.250;10.410;2024-02-21T03:31:40;30.15;;;20.38;;
13388;SDS011;6764;53.250;10.410;2024-02-21T03:34:06;31.27;;;20.80;;
13388;SDS011;6764;53.250;10.410;2024-02-21T03:36:31;27.95;;;20.17;;
13388;SDS011;6764;53.250;10.410;2024-02-21T03:38:57;29.87;;;19.87;;
13388;SDS011;6764;53.250;10.410;2024-02-21T03:41:23;35.17;;;22.03;;
13388;SDS011;6764;53.250;10.410;2024-02-21T03:43:48;28.77;;;19.90;;
13388;SDS011;6764;53.250;10.410;2024-02-21T03:46:14;33.97;;;19.87;;
13388;SDS011;6764;53.250;10.410;2024-02-21T03:48:40;32.43;;;19.93;;
13388;SDS011;6764;53.250;10.410;2024-02-21T03:51:06;30.30;;;19.33;;
13388;SDS011;6764;53.250;10.410;2024-02-21T03:53:32;26.98;;;19.58;;
13388;SDS011;6764;53.250;10.410;2024-02-21T03:56:00;34.23;;;20.43;;
13388;SDS011;6764;53.250;10.410;2024-02-21T03:58:28;30.42;;;19.23;;
13388;SDS011;6764;53.250;10.410;2024-02-21T04:00:55;30.70;;;19.73;;
13388;SDS011;6764;53.250;10.410;2024-02-21T04:03:20;27.42;;;18.25;;
13388;SDS011;6764;53.250;10.410;2024-02-21T04:05:46;28.55;;;18.27;;
13388;SDS011;6764;53.250;10.410;2024-02-21T04:08:12;26.60;;;18.87;;
13388;SDS011;6764;53.250;10.410;2024-02-21T04:10:37;32.57;;;19.30;;
13388;SDS011;6764;53.250;10.410;2024-02-21T04:13:04;28.15;;;17.80;;
13388;SDS011;6764;53.250;10.410;2024-02-21T04:15:31;26.00;;;17.08;;
13388;SDS011;6764;53.250;10.410;2024-02-21T04:17:56;26.83;;;18.00;;
13388;SDS011;6764;53.250;10.410;2024-02-21T04:20:22;28.03;;;17.77;;
13388;SDS011;6764;53.250;10.410;2024-02-21T04:22:48;27.77;;;17.98;;
13388;SDS011;6764;53.250;10.410;2024-02-21T04:25:14;27.95;;;17.73;;
13388;SDS011;6764;53.250;10.410;2024-02-21T04:27:40;27.35;;;18.08;;
13388;SDS011;6764;53.250;10.410;2024-02-21T04:30:06;26.70;;;17.67;;
13388;SDS011;6764;53.250;10.410;2024-02-21T04:32:32;28.60;;;18.02;;
13388;SDS011;6764;53.250;10.410;2024-02-21T04:34:58;29.15;;;17.98;;
13388;SDS011;6764;53.250;10.410;2024-02-21T04:37:23;29.35;;;18.40;;
13388;SDS011;6764;53.250;10.410;2024-02-21T04:39:49;28.15;;;17.80;;
13388;SDS011;6764;53.250;10.410;2024-02-21T04:42:15;27.77;;;18.63;;
13388;SDS011;6764;53.250;10.410;2024-02-21T04:44:41;28.17;;;18.00;;
13388;SDS011;6764;53.250;10.410;2024-02-21T04:47:07;34.60;;;19.17;;
13388;SDS011;6764;53.250;10.410;2024-02-21T04:49:33;29.42;;;18.60;;
13388;SDS011;6764;53.250;10.410;2024-02-21T04:51:59;27.48;;;18.65;;
13388;SDS011;6764;53.250;10.410;2024-02-21T04:54:24;26.73;;;18.25;;
13388;SDS011;6764;53.250;10.410;2024-02-21T04:56:50;28.17;;;18.52;;
13388;SDS011;6764;53.250;10.410;2024-02-21T04:59:16;28.80;;;18.83;;
13388;SDS011;6764;53.250;10.410;2024-02-21T05:01:42;27.05;;;16.83;;
13388;SDS011;6764;53.250;10.410;2024-02-21T05:04:07;27.47;;;17.00;;
13388;SDS011;6764;53.250;10.410;2024-02-21T05:06:39;24.45;;;17.67;;
13388;SDS011;6764;53.250;10.410;2024-02-21T05:09:06;23.38;;;17.73;;
13388;SDS011;6764;53.250;10.410;2024-02-21T05:11:33;24.52;;;17.30;;
13388;SDS011;6764;53.250;10.410;2024-02-21T05:13:59;25.50;;;16.73;;
13388;SDS011;6764;53.250;10.410;2024-02-21T05:16:25;24.08;;;17.42;;
13388;SDS011;6764;53.250;10.410;2024-02-21T05:18:50;26.67;;;17.13;;
13388;SDS011;6764;53.250;10.410;2024-02-21T05:21:16;24.60;;;16.13;;
13388;SDS011;6764;53.250;10.410;2024-02-21T05:23:41;27.02;;;17.70;;
13388;SDS011;6764;53.250;10.410;2024-02-21T05:26:07;22.73;;;16.53;;
13388;SDS011;6764;53.250;10.410;2024-02-21T05:28:34;23.95;;;16.48;;
13388;SDS011;6764;53.250;10.410;2024-02-21T05:30:59;24.30;;;16.58;;
13388;SDS011;6764;53.250;10.410;2024-02-21T05:33:25;24.77;;;16.88;;
13388;SDS011;6764;53.250;10.410;2024-02-21T05:35:52;23.77;;;17.08;;
13388;SDS011;6764;53.250;10.410;2024-02-21T05:38:17;21.15;;;16.67;;
13388;SDS011;6764;53.250;10.410;2024-02-21T05:40:46;21.50;;;16.37;;
13388;SDS011;6764;53.250;10.410;2024-02-21T05:43:13;23.50;;;16.55;;
13388;SDS011;6764;53.250;10.410;2024-02-21T05:45:39;21.07;;;16.50;;
13388;SDS011;6764;53.250;10.410;2024-02-21T05:48:05;22.73;;;16.15;;
13388;SDS011;6764;53.250;10.410;2024-02-21T05:50:31;22.70;;;16.65;;
13388;SDS011;6764;53.250;10.410;2024-02-21T05:52:57;22.60;;;16.00;;
13388;SDS011;6764;53.250;10.410;2024-02-21T05:55:23;22.67;;;15.77;;
13388;SDS011;6764;53.250;10.410;2024-02-21T05:57:49;21.38;;;15.80;;
13388;SDS011;6764;53.250;10.410;2024-02-21T06:00:15;22.57;;;15.57;;
13388;SDS011;6764;53.250;10.410;2024-02-21T06:02:41;20.77;;;15.23;;
13388;SDS011;6764;53.250;10.410;2024-02-21T06:05:07;22.05;;;16.02;;
13388;SDS011;6764;53.250;10.410;2024-02-21T06:07:34;20.60;;;15.53;;
13388;SDS011;6764;53.250;10.410;2024-02-21T06:10:01;20.92;;;15.32;;
13388;SDS011;6764;53.250;10.410;2024-02-21T06:12:27;20.35;;;15.13;;
13388;SDS011;6764;53.250;10.410;2024-02-21T06:14:53;20.25;;;15.23;;
13388;SDS011;6764;53.250;10.410;2024-02-21T06:17:18;20.43;;;14.60;;
13388;SDS011;6764;53.250;10.410;2024-02-21T06:19:44;17.97;;;14.13;;
13388;SDS011;6764;53.250;10.410;2024-02-21T06:22:10;18.92;;;14.93;;
13388;SDS011;6764;53.250;10.410;2024-02-21T06:24:36;19.60;;;14.87;;
13388;SDS011;6764;53.250;10.410;2024-02-21T06:27:03;18.63;;;13.53;;
13388;SDS011;6764;53.250;10.410;2024-02-21T06:29:31;17.85;;;13.65;;
13388;SDS011;6764;53.250;10.410;2024-02-21T06:31:57;18.33;;;13.65;;
13388;SDS011;6764;53.250;10.410;2024-02-21T06:34:23;17.38;;;12.90;;
13388;SDS011;6764;53.250;10.410;2024-02-21T06:36:49;16.07;;;12.43;;
13388;SDS011;6764;53.250;10.410;2024-02-21T06:39:15;17.83;;;12.45;;
13388;SDS011;6764;53.250;10.410;2024-02-21T06:41:41;16.37;;;12.33;;
13388;SDS011;6764;53.250;10.410;2024-02-21T06:44:06;18.43;;;13.13;;
13388;SDS011;6764;53.250;10.410;2024-02-21T06:46:32;16.80;;;12.73;;
13388;SDS011;6764;53.250;10.410;2024-02-21T06:48:58;14.55;;;12.63;;
13388;SDS011;6764;53.250;10.410;2024-02-21T06:51:31;15.30;;;12.50;;
13388;SDS011;6764;53.250;10.410;2024-02-21T06:53:56;14.00;;;12.50;;
13388;SDS011;6764;53.250;10.410;2024-02-21T06:56:23;16.00;;;12.60;;
13388;SDS011;6764;53.250;10.410;2024-02-21T06:58:54;15.87;;;12.30;;
13388;SDS011;6764;53.250;10.410;2024-02-21T07:01:20;15.40;;;12.35;;
13388;SDS011;6764;53.250;10.410;2024-02-21T07:03:45;17.10;;;12.05;;
13388;SDS011;6764;53.250;10.410;2024-02-21T07:06:11;15.33;;;11.93;;
13388;SDS011;6764;53.250;10.410;2024-02-21T07:08:37;12.10;;;10.90;;
13388;SDS011;6764;53.250;10.410;2024-02-21T07:11:04;14.13;;;11.30;;
13388;SDS011;6764;53.250;10.410;2024-02-21T07:13:29;13.32;;;11.27;;
13388;SDS011;6764;53.250;10.410;2024-02-21T07:15:55;12.40;;;10.40;;
13388;SDS011;6764;53.250;10.410;2024-02-21T07:18:21;11.37;;;10.17;;
13388;SDS011;6764;53.250;10.410;2024-02-21T07:20:46;11.68;;;9.98;;
13388;SDS011;6764;53.250;10.410;2024-02-21T07:23:12;11.87;;;10.60;;
13388;SDS011;6764;53.250;10.410;2024-02-21T07:25:38;11.00;;;9.70;;
13388;SDS011;6764;53.250;10.410;2024-02-21T07:28:04;11.43;;;10.13;;
13388;SDS011;6764;53.250;10.410;2024-02-21T07:30:30;12.98;;;10.35;;
13388;SDS011;6764;53.250;10.410;2024-02-21T07:32:56;10.20;;;9.00;;
13388;SDS011;6764;53.250;10.410;2024-02-21T07:35:21;9.57;;;8.67;;
13388;SDS011;6764;53.250;10.410;2024-02-21T07:37:47;11.23;;;9.20;;
13388;SDS011;6764;53.250;10.410;2024-02-21T07:40:13;9.07;;;8.17;;
13388;SDS011;6764;53.250;10.410;2024-02-21T07:42:39;9.70;;;8.13;;
13388;SDS011;6764;53.250;10.410;2024-02-21T07:45:06;8.52;;;7.55;;
13388;SDS011;6764;53.250;10.410;2024-02-21T07:47:32;8.98;;;8.07;;
13388;SDS011;6764;53.250;10.410;2024-02-21T07:49:58;9.10;;;8.20;;
13388;SDS011;6764;53.250;10.410;2024-02-21T07:52:23;9.00;;;8.10;;
13388;SDS011;6764;53.250;10.410;2024-02-21T07:54:50;8.80;;;7.78;;
13388;SDS011;6764;53.250;10.410;2024-02-21T07:57:15;9.03;;;8.13;;
13388;SDS011;6764;53.250;10.410;2024-02-21T07:59:41;9.27;;;8.07;;
13388;SDS011;6764;53.250;10.410;2024-02-21T08:02:07;9.68;;;8.70;;
13388;SDS011;6764;53.250;10.410;2024-02-21T08:04:32;8.73;;;7.93;;
13388;SDS011;6764;53.250;10.410;2024-02-21T08:06:58;8.67;;;7.77;;
13388;SDS011;6764;53.250;10.410;2024-02-21T08:09:26;8.80;;;7.95;;
13388;SDS011;6764;53.250;10.410;2024-02-21T08:11:53;9.00;;;7.90;;
13388;SDS011;6764;53.250;10.410;2024-02-21T08:14:19;8.70;;;7.85;;
13388;SDS011;6764;53.250;10.410;2024-02-21T08:16:45;9.27;;;7.95;;
13388;SDS011;6764;53.250;10.410;2024-02-21T08:19:11;9.20;;;7.97;;
13388;SDS011;6764;53.250;10.410;2024-02-21T08:21:36;9.30;;;8.32;;
13388;SDS011;6764;53.250;10.410;2024-02-21T08:24:02;8.70;;;7.82;;
13388;SDS011;6764;53.250;10.410;2024-02-21T08:26:28;8.70;;;7.75;;
13388;SDS011;6764;53.250;10.410;2024-02-21T08:28:56;9.55;;;8.15;;
13388;SDS011;6764;53.250;10.410;2024-02-21T08:31:24;8.73;;;7.70;;
13388;SDS011;6764;53.250;10.410;2024-02-21T08:33:56;9.40;;;8.40;;
13388;SDS011;6764;53.250;10.410;2024-02-21T08:36:27;8.40;;;7.60;;
13388;SDS011;6764;53.250;10.410;2024-02-21T08:38:56;8.43;;;7.53;;
13388;SDS011;6764;53.250;10.410;2024-02-21T08:41:23;9.07;;;8.17;;
13388;SDS011;6764;53.250;10.410;2024-02-21T08:43:50;9.00;;;7.72;;
13388;SDS011;6764;53.250;10.410;2024-02-21T08:46:19;8.35;;;7.55;;
13388;SDS011;6764;53.250;10.410;2024-02-21T08:48:46;8.40;;;7.43;;
13388;SDS011;6764;53.250;10.410;2024-02-21T08:51:12;11.23;;;9.23;;
13388;SDS011;6764;53.250;10.410;2024-02-21T08:53:38;8.30;;;7.50;;
13388;SDS011;6764;53.250;10.410;2024-02-21T08:56:03;8.87;;;7.97;;
13388;SDS011;6764;53.250;10.410;2024-02-21T08:58:30;10.23;;;7.75;;
13388;SDS011;6764;53.250;10.410;2024-02-21T09:00:56;8.48;;;7.55;;
13388;SDS011;6764;53.250;10.410;2024-02-21T09:03:22;8.43;;;7.63;;
13388;SDS011;6764;53.250;10.410;2024-02-21T09:05:47;8.33;;;7.53;;
13388;SDS011;6764;53.250;10.410;2024-02-21T09:08:13;8.20;;;7.13;;
13388;SDS011;6764;53.250;10.410;2024-02-21T09:10:39;7.40;;;6.70;;
13388;SDS011;6764;53.250;10.410;2024-02-21T09:13:05;8.80;;;6.53;;
13388;SDS011;6764;53.250;10.410;2024-02-21T09:15:32;7.80;;;7.00;;
13388;SDS011;6764;53.250;10.410;2024-02-21T09:17:58;8.95;;;7.57;;
13388;SDS011;6764;53.250;10.410;2024-02-21T09:20:24;7.35;;;6.68;;
13388;SDS011;6764;53.250;10.410;2024-02-21T09:22:49;7.43;;;6.60;;
13388;SDS011;6764;53.250;10.410;2024-02-21T09:25:15;8.82;;;7.18;;
13388;SDS011;6764;53.250;10.410;2024-02-21T09:27:41;8.35;;;7.53;;
13388;SDS011;6764;53.250;10.410;2024-02-21T09:30:06;8.15;;;7.35;;
13388;SDS011;6764;53.250;10.410;2024-02-21T09:32:32;8.35;;;7.50;;
13388;SDS011;6764;53.250;10.410;2024-02-21T09:34:58;8.80;;;7.90;;
13388;SDS011;6764;53.250;10.410;2024-02-21T09:37:24;7.95;;;7.15;;
13388;SDS011;6764;53.250;10.410;2024-02-21T09:39:49;8.10;;;7.28;;
13388;SDS011;6764;53.250;10.410;2024-02-21T09:42:18;9.18;;;8.27;;
13388;SDS011;6764;53.250;10.410;2024-02-21T09:44:45;9.20;;;8.20;;
13388;SDS011;6764;53.250;10.410;2024-02-21T09:47:24;8.82;;;7.93;;
13388;SDS011;6764;53.250;10.410;2024-02-21T09:50:14;11.75;;;10.20;;
13388;SDS011;6764;53.250;10.410;2024-02-21T09:52:40;12.65;;;11.18;;
13388;SDS011;6764;53.250;10.410;2024-02-21T09:55:07;13.85;;;11.60;;
13388;SDS011;6764;53.250;10.410;2024-02-21T09:57:37;14.25;;;12.00;;
13388;SDS011;6764;53.250;10.410;2024-02-21T10:00:03;14.47;;;12.53;;
13388;SDS011;6764;53.250;10.410;2024-02-21T10:02:33;16.73;;;13.63;;
13388;SDS011;6764;53.250;10.410;2024-02-21T10:04:58;16.48;;;13.52;;
13388;SDS011;6764;53.250;10.410;2024-02-21T10:07:24;17.67;;;14.10;;
13388;SDS011;6764;53.250;10.410;2024-02-21T10:10:00;20.05;;;14.52;;
13388;SDS011;6764;53.250;10.410;2024-02-21T10:12:26;18.65;;;14.73;;
13388;SDS011;6764;53.250;10.410;2024-02-21T10:15:05;19.67;;;15.33;;
13388;SDS011;6764;53.250;10.410;2024-02-21T10:17:34;19.52;;;15.88;;
13388;SDS011;6764;53.250;10.410;2024-02-21T10:20:10;18.42;;;14.93;;
13388;SDS011;6764;53.250;10.410;2024-02-21T10:22:37;18.65;;;14.48;;
13388;SDS011;6764;53.250;10.410;2024-02-21T10:25:22;17.67;;;13.90;;
13388;SDS011;6764;53.250;10.410;2024-02-21T10:27:48;21.50;;;14.27;;
13388;SDS011;6764;53.250;10.410;2024-02-21T10:30:14;19.45;;;14.32;;
13388;SDS011;6764;53.250;10.410;2024-02-21T10:32:54;18.08;;;14.55;;
13388;SDS011;6764;53.250;10.410;2024-02-21T10:35:26;19.90;;;14.40;;
13388;SDS011;6764;53.250;10.410;2024-02-21T10:37:53;19.55;;;15.50;;
13388;SDS011;6764;53.250;10.410;2024-02-21T10:40:22;16.70;;;13.82;;
13388;SDS011;6764;53.250;10.410;2024-02-21T10:42:58;17.35;;;13.73;;
13388;SDS011;6764;53.250;10.410;2024-02-21T10:45:35;19.38;;;12.40;;
13388;SDS011;6764;53.250;10.410;2024-02-21T10:48:11;17.40;;;12.33;;
13388;SDS011;6764;53.250;10.410;2024-02-21T10:50:46;15.18;;;11.82;;
13388;SDS011;6764;53.250;10.410;2024-02-21T10:55:58;17.50;;;11.18;;
13388;SDS011;6764;53.250;10.410;2024-02-21T10:58:36;15.63;;;10.82;;
13388;SDS011;6764;53.250;10.410;2024-02-21T11:01:03;14.13;;;9.80;;
13388;SDS011;6764;53.250;10.410;2024-02-21T11:03:30;11.88;;;9.38;;
13388;SDS011;6764;53.250;10.410;2024-02-21T11:05:56;11.82;;;9.48;;
13388;SDS011;6764;53.250;10.410;2024-02-21T11:08:23;12.10;;;9.73;;
13388;SDS011;6764;53.250;10.410;2024-02-21T11:10:50;13.82;;;9.07;;
13388;SDS011;6764;53.250;10.410;2024-02-21T11:13:15;13.90;;;9.95;;
13388;SDS011;6764;53.250;10.410;2024-02-21T11:15:41;14.13;;;9.00;;
13388;SDS011;6764;53.250;10.410;2024-02-21T11:18:07;13.40;;;9.10;;
13388;SDS011;6764;53.250;10.410;2024-02-21T11:20:33;13.70;;;9.67;;
13388;SDS011;6764;53.250;10.410;2024-02-21T11:22:59;13.65;;;9.00;;
13388;SDS011;6764;53.250;10.410;2024-02-21T11:25:26;14.38;;;10.02;;
13388;SDS011;6764;53.250;10.410;2024-02-21T11:27:58;12.77;;;9.97;;
13388;SDS011;6764;53.250;10.410;2024-02-21T11:30:31;16.70;;;10.32;;
13388;SDS011;6764;53.250;10.410;2024-02-21T11:33:03;15.83;;;10.80;;
13388;SDS011;6764;53.250;10.410;2024-02-21T11:35:31;13.77;;;10.37;;
13388;SDS011;6764;53.250;10.410;2024-02-21T11:38:10;15.57;;;11.75;;
13388;SDS011;6764;53.250;10.410;2024-02-21T11:40:41;14.93;;;10.85;;
13388;SDS011;6764;53.250;10.410;2024-02-21T11:43:10;14.48;;;10.75;;
13388;SDS011;6764;53.250;10.410;2024-02-21T11:45:36;18.58;;;12.10;;
13388;SDS011;6764;53.250;10.410;2024-02-21T11:48:02;13.43;;;10.50;;
13388;SDS011;6764;53.250;10.410;2024-02-21T11:50:30;14.30;;;11.27;;
13388;SDS011;6764;53.250;10.410;2024-02-21T11:52:57;15.23;;;11.43;;
13388;SDS011;6764;53.250;10.410;2024-02-21T11:55:23;14.80;;;11.75;;
13388;SDS011;6764;53.250;10.410;2024-02-21T11:57:48;18.63;;;12.60;;
13388;SDS011;6764;53.250;10.410;2024-02-21T12:02:41;19.23;;;13.75;;
13388;SDS011;6764;53.250;10.410;2024-02-21T12:05:10;18.23;;;13.77;;
13388;SDS011;6764;53.250;10.410;2024-02-21T12:07:36;19.03;;;13.53;;
13388;SDS011;6764;53.250;10.410;2024-02-21T12:10:12;18.52;;;13.68;;
13388;SDS011;6764;53.250;10.410;2024-02-21T12:12:38;19.55;;;13.82;;
13388;SDS011;6764;53.250;10.410;2024-02-21T12:15:04;24.60;;;18.83;;
13388;SDS011;6764;53.250;10.410;2024-02-21T12:17:34;19.87;;;13.77;;
13388;SDS011;6764;53.250;10.410;2024-02-21T12:20:00;18.95;;;14.23;;
13388;SDS011;6764;53.250;10.410;2024-02-21T12:22:30;21.80;;;15.27;;
13388;SDS011;6764;53.250;10.410;2024-02-21T12:24:57;20.08;;;14.45;;
13388;SDS011;6764;53.250;10.410;2024-02-21T12:27:27;15.53;;;13.20;;
13388;SDS011;6764;53.250;10.410;2024-02-21T12:29:53;16.92;;;13.85;;
13388;SDS011;6764;53.250;10.410;2024-02-21T12:32:19;16.77;;;13.37;;
13388;SDS011;6764;53.250;10.410;2024-02-21T12:34:47;18.20;;;13.82;;
13388;SDS011;6764;53.250;10.410;2024-02-21T12:37:13;20.53;;;16.17;;
13388;SDS011;6764;53.250;10.410;2024-02-21T12:39:40;19.55;;;13.00;;
13388;SDS011;6764;53.250;10.410;2024-02-21T12:42:06;18.65;;;13.05;;
13388;SDS011;6764;53.250;10.410;2024-02-21T12:44:32;15.73;;;11.20;;
13388;SDS011;6764;53.250;10.410;2024-02-21T12:46:59;16.50;;;12.43;;
13388;SDS011;6764;53.250;10.410;2024-02-21T12:49:24;17.20;;;12.57;;
13388;SDS011;6764;53.250;10.410;2024-02-21T12:51:52;17.23;;;12.27;;
13388;SDS011;6764;53.250;10.410;2024-02-21T12:54:17;16.33;;;11.60;;
13388;SDS011;6764;53.250;10.410;2024-02-21T12:56:43;15.17;;;11.00;;
13388;SDS011;6764;53.250;10.410;2024-02-21T12:59:11;18.50;;;12.35;;
13388;SDS011;6764;53.250;10.410;2024-02-21T13:01:37;15.75;;;11.02;;
13388;SDS011;6764;53.250;10.410;2024-02-21T13:04:02;15.70;;;10.00;;
13388;SDS011;6764;53.250;10.410;2024-02-21T13:06:28;14.60;;;9.47;;
13388;SDS011;6764;53.250;10.410;2024-02-21T13:08:54;12.60;;;8.80;;
13388;SDS011;6764;53.250;10.410;2024-02-21T13:11:19;11.90;;;9.40;;
13388;SDS011;6764;53.250;10.410;2024-02-21T13:13:45;13.73;;;9.43;;
13388;SDS011;6764;53.250;10.410;2024-02-21T13:16:11;14.77;;;9.20;;
13388;SDS011;6764;53.250;10.410;2024-02-21T13:18:36;12.35;;;8.80;;
13388;SDS011;6764;53.250;10.410;2024-02-21T13:21:07;14.02;;;8.98;;
13388;SDS011;6764;53.250;10.410;2024-02-21T13:23:33;13.70;;;8.83;;
13388;SDS011;6764;53.250;10.410;2024-02-21T13:25:58;15.43;;;8.07;;
13388;SDS011;6764;53.250;10.410;2024-02-21T13:28:24;12.80;;;8.20;;
13388;SDS011;6764;53.250;10.410;2024-02-21T13:30:50;11.90;;;7.47;;
13388;SDS011;6764;53.250;10.410;2024-02-21T13:33:15;12.88;;;8.50;;
13388;SDS011;6764;53.250;10.410;2024-02-21T13:35:41;12.67;;;7.50;;
13388;SDS011;6764;53.250;10.410;2024-02-21T13:38:06;13.73;;;7.50;;
13388;SDS011;6764;53.250;10.410;2024-02-21T13:40:32;11.40;;;7.20;;
13388;SDS011;6764;53.250;10.410;2024-02-21T13:42:58;11.73;;;7.43;;
13388;SDS011;6764;53.250;10.410;2024-02-21T13:45:24;11.57;;;7.50;;
13388;SDS011;6764;53.250;10.410;2024-02-21T13:47:49;11.98;;;7.30;;
13388;SDS011;6764;53.250;10.410;2024-02-21T13:50:15;11.87;;;6.67;;
13388;SDS011;6764;53.250;10.410;2024-02-21T13:52:42;9.55;;;6.32;;
13388;SDS011;6764;53.250;10.410;2024-02-21T13:55:08;10.32;;;5.35;;
13388;SDS011;6764;53.250;10.410;2024-02-21T13:57:37;10.52;;;6.25;;
13388;SDS011;6764;53.250;10.410;2024-02-21T14:00:03;10.90;;;6.10;;
13388;SDS011;6764;53.250;10.410;2024-02-21T14:02:29;10.20;;;5.40;;
13388;SDS011;6764;53.250;10.410;2024-02-21T14:04:55;7.95;;;5.32;;
13388;SDS011;6764;53.250;10.410;2024-02-21T14:07:21;10.70;;;5.50;;
13388;SDS011;6764;53.250;10.410;2024-02-21T14:09:47;8.82;;;4.90;;
13388;SDS011;6764;53.250;10.410;2024-02-21T14:12:13;8.67;;;4.83;;
13388;SDS011;6764;53.250;10.410;2024-02-21T14:14:38;9.27;;;4.70;;
13388;SDS011;6764;53.250;10.410;2024-02-21T14:17:04;10.40;;;4.70;;
13388;SDS011;6764;53.250;10.410;2024-02-21T14:19:30;8.23;;;4.43;;
13388;SDS011;6764;53.250;10.410;2024-02-21T14:21:55;6.03;;;3.90;;
13388;SDS011;6764;53.250;10.410;2024-02-21T14:24:22;10.43;;;4.22;;
13388;SDS011;6764;53.250;10.410;2024-02-21T14:26:48;7.93;;;4.47;;
13388;SDS011;6764;53.250;10.410;2024-02-21T14:29:13;10.57;;;3.87;;
13388;SDS011;6764;53.250;10.410;2024-02-21T14:31:39;6.68;;;3.55;;
13388;SDS011;6764;53.250;10.410;2024-02-21T14:34:05;9.70;;;4.43;;
13388;SDS011;6764;53.250;10.410;2024-02-21T14:36:32;7.05;;;3.83;;